CSCL Arctic Ocean — VROD9 — position and weather

sailwx.info

Track history (hours):
 
Tides and Currents Weather Stations Pressure Air Temp Water Temp Dewpoint Dewpoint Depression Visibility Wind Speed Wind Dir Waves Ship Positions

CSCL Arctic Ocean

Last reported at 2018-Jun-19 20:11 UTC. Time now 2018-Jun-20 19:12 UTC.
Position N 36°24' W 008°36'.

Length 400 m; draft 12.9 m.

Type: Ship (hazmat cat A). MMSI: 477967700.

Date/timePositionNaut miles runAvg speedWind from/ knotsBaromVisibWave heightAir tempDewpointWater temp
2018-Jun-19 20:11N 36°24' W 008°36'312.9
2018-Jun-19 19:58N 36°25' W 008°39'613.0
2018-Jun-19 19:29N 36°27' W 008°46'1212.9
2018-Jun-19 18:33N 36°30' W 009°01'112.9
2018-Jun-19 18:30N 36°30' W 009°02'713.1
2018-Jun-19 17:57N 36°32' W 009°10'712.8
2018-Jun-19 17:24N 36°35' W 009°18'513.0
2018-Jun-19 16:58N 36°39' W 009°23'612.9
2018-Jun-19 16:30N 36°44' W 009°28'712.8
2018-Jun-19 15:55N 36°50' W 009°33'713.1
2018-Jun-19 15:25N 36°56' W 009°36'4613.2
2018-Jun-19 11:58N 37°40' W 009°49'613.0
2018-Jun-19 11:30N 37°46' W 009°50'812.8
2018-Jun-19 10:53N 37°54' W 009°52'612.5
2018-Jun-19 10:23N 37°60' W 009°54'512.6
2018-Jun-19 10:01N 38°05' W 009°56'612.4
2018-Jun-19 09:30N 38°11' W 009°57'612.4
2018-Jun-19 09:00N 38°17' W 009°59'612.5
2018-Jun-19 08:30N 38°23' W 010°01'612.6
2018-Jun-19 08:00N 38°29' W 010°03'612.6
2018-Jun-19 07:30N 38°35' W 010°04'713.1
2018-Jun-19 07:00N 38°42' W 010°06'612.9
2018-Jun-19 06:30N 38°48' W 010°06'612.9
2018-Jun-19 06:00N 38°54' W 010°06'612.6
2018-Jun-19 05:30N 39°01' W 010°07'612.4
2018-Jun-19 05:00N 39°07' W 010°07'612.7
2018-Jun-19 04:30N 39°13' W 010°06'613.0
2018-Jun-19 04:00N 39°20' W 010°06'713.2
2018-Jun-19 03:30N 39°26' W 010°06'713.2
2018-Jun-19 03:00N 39°33' W 010°06'713.2
2018-Jun-19 02:30N 39°40' W 010°06'713.0
2018-Jun-19 02:00N 39°46' W 010°06'613.0
2018-Jun-19 01:30N 39°53' W 010°07'713.1
2018-Jun-19 01:00N 39°59' W 010°06'713.3
2018-Jun-19 00:30N 40°06' W 010°06'713.1
2018-Jun-19 00:00N 40°12' W 010°06'713.2
2018-Jun-18 23:30N 40°19' W 010°06'713.6
2018-Jun-18 23:01N 40°26' W 010°06'713.4
2018-Jun-18 22:30N 40°32' W 010°06'713.3
2018-Jun-18 22:00N 40°39' W 010°07'713.2
2018-Jun-18 21:30N 40°46' W 010°06'713.5
2018-Jun-18 21:01N 40°52' W 010°06'713.2
2018-Jun-18 20:31N 40°59' W 010°06'612.9
2018-Jun-18 20:00N 41°05' W 010°07'713.0
2018-Jun-18 19:30N 41°12' W 010°06'813.3
2018-Jun-18 18:55N 41°20' W 010°06'613.6
2018-Jun-18 18:30N 41°25' W 010°06'47713.1
2018-Jun-17 06:05N 48°47' W 005°52'2610.8
2018-Jun-17 03:43N 49°06' W 005°27'411.9
2018-Jun-17 03:24N 49°09' W 005°22'1712.9
2018-Jun-17 02:05N 49°20' W 005°03'114.1
2018-Jun-17 01:59N 49°21' W 005°02'1213.4
2018-Jun-17 01:07N 49°29' W 004°49'213.8
2018-Jun-17 01:00N 49°30' W 004°47'713.6
2018-Jun-17 00:29N 49°34' W 004°39'713.4
2018-Jun-16 23:56N 49°39' W 004°30'613.0
2018-Jun-16 23:30N 49°43' W 004°24'612.4
2018-Jun-16 22:59N 49°47' W 004°16'612.1
2018-Jun-16 22:29N 49°51' W 004°09'611.8
2018-Jun-16 22:00N 49°55' W 004°03'611.2
2018-Jun-16 21:30N 49°59' W 003°56'610.8
2018-Jun-16 20:58N 50°03' W 003°49'510.6
2018-Jun-16 20:30N 50°06' W 003°44'510.3
2018-Jun-16 20:00N 50°09' W 003°38'510.6
2018-Jun-16 19:30N 50°13' W 003°32'611.9
2018-Jun-16 19:00N 50°19' W 003°28'510.5
2018-Jun-16 18:30N 50°24' W 003°25'4 8.2
2018-Jun-16 18:00N 50°25' W 003°19'713.6
2018-Jun-16 17:30N 50°25' W 003°09'714.3
2018-Jun-16 17:00N 50°25' W 002°57'714.9
2018-Jun-16 16:30N 50°26' W 002°46'815.3
2018-Jun-16 16:00N 50°26' W 002°34'816.0
2018-Jun-16 15:31N 50°26' W 002°21'815.8
2018-Jun-16 15:01N 50°26' W 002°09'815.6
2018-Jun-16 14:30N 50°27' W 001°57'714.9
2018-Jun-16 14:00N 50°27' W 001°45'714.2
2018-Jun-16 13:30N 50°27' W 001°34'813.6
2018-Jun-16 12:56N 50°27' W 001°22'613.0
2018-Jun-16 12:30N 50°28' W 001°13'612.0
2018-Jun-16 12:00N 50°28' W 001°03'611.2
2018-Jun-16 11:30N 50°28' W 000°55'510.6
2018-Jun-16 11:00N 50°28' W 000°46'5 9.5
2018-Jun-16 10:29N 50°28' W 000°39'5 9.5
2018-Jun-16 09:59N 50°28' W 000°31'510.0
2018-Jun-16 09:30N 50°29' W 000°24'510.8
2018-Jun-16 09:00N 50°29' W 000°15'611.4
2018-Jun-16 08:30N 50°30' W 000°06'612.1
2018-Jun-16 08:00N 50°30' E 000°03'613.0
2018-Jun-16 07:30N 50°31' E 000°13'713.7
2018-Jun-16 07:00N 50°33' E 000°24'714.2
2018-Jun-16 06:30N 50°35' E 000°34'714.4
2018-Jun-16 06:00N 50°39' E 000°45'714.5
2018-Jun-16 05:30N 50°43' E 000°54'713.9
2018-Jun-16 05:00N 50°47' E 001°02'713.5
2018-Jun-16 04:31N 50°51' E 001°11'713.1
2018-Jun-16 04:01N 50°55' E 001°19'714.8
2018-Jun-16 03:30N 51°01' E 001°27'713.9
2018-Jun-16 03:00N 51°06' E 001°34'713.2
2018-Jun-16 02:30N 51°12' E 001°38'713.1
2018-Jun-16 02:00N 51°18' E 001°41'713.9
2018-Jun-16 01:30N 51°25' E 001°45'612.3
2018-Jun-16 01:01N 51°31' E 001°45'713.2
2018-Jun-16 00:31N 51°38' E 001°45'713.9
2018-Jun-16 00:00N 51°44' E 001°44'713.3
2018-Jun-15 23:31N 51°51' E 001°41'510.0
2018-Jun-15 23:00N 51°53' E 001°34'5 9.5
2018-Jun-15 22:30N 51°56' E 001°29'511.0
2018-Jun-15 22:00N 51°55' E 001°20'2 2.9
2018-Jun-15 21:28N 51°57' E 001°19'0 0.0
2018-Jun-15 20:58N 51°57' E 001°19'0 0.0
2018-Jun-15 20:28N 51°57' E 001°19'0 0.0
2018-Jun-15 19:58N 51°57' E 001°19'0 0.0
2018-Jun-15 19:28N 51°57' E 001°19'0 0.0
2018-Jun-15 18:58N 51°57' E 001°19'0 0.0
2018-Jun-15 18:28N 51°57' E 001°19'0 0.0
2018-Jun-15 17:58N 51°57' E 001°19'0 0.0
2018-Jun-15 17:28N 51°57' E 001°19'0 0.0
2018-Jun-15 16:58N 51°57' E 001°19'0 0.0
2018-Jun-15 16:28N 51°57' E 001°19'0 0.0
2018-Jun-15 15:58N 51°57' E 001°19'0 0.0
2018-Jun-15 15:28N 51°57' E 001°19'0 0.0
2018-Jun-15 14:58N 51°57' E 001°19'0 0.0
2018-Jun-15 14:28N 51°57' E 001°19'0 0.0
2018-Jun-15 13:58N 51°57' E 001°19'0 0.0
2018-Jun-15 13:28N 51°57' E 001°19'0 0.0
2018-Jun-15 12:58N 51°57' E 001°19'0 0.0
2018-Jun-15 12:28N 51°57' E 001°19'0 0.0
2018-Jun-15 11:58N 51°57' E 001°19'0 0.0
2018-Jun-15 11:28N 51°57' E 001°19'0 0.0
2018-Jun-15 10:58N 51°57' E 001°19'0 0.0
2018-Jun-15 10:28N 51°57' E 001°19'0 0.0
2018-Jun-15 09:58N 51°57' E 001°19'0 0.0
2018-Jun-15 09:28N 51°57' E 001°19'0 0.0
2018-Jun-15 08:58N 51°57' E 001°19'0 0.0
2018-Jun-15 08:28N 51°57' E 001°19'0 0.0
2018-Jun-15 07:58N 51°57' E 001°19'0 0.0
2018-Jun-15 07:28N 51°57' E 001°19'0 0.0
2018-Jun-15 06:58N 51°57' E 001°19'0 0.0
2018-Jun-15 06:28N 51°57' E 001°19'0 0.0
2018-Jun-15 05:58N 51°57' E 001°19'0 0.0
2018-Jun-15 05:28N 51°57' E 001°19'0 0.0
2018-Jun-15 04:58N 51°57' E 001°19'0 0.0
2018-Jun-15 04:28N 51°57' E 001°19'0 0.0
2018-Jun-15 03:58N 51°57' E 001°19'0 0.0
2018-Jun-15 03:28N 51°57' E 001°19'0 0.0
2018-Jun-15 02:58N 51°57' E 001°19'0 0.0
2018-Jun-15 02:28N 51°57' E 001°19'0 0.0
2018-Jun-15 01:58N 51°57' E 001°19'0 0.0
2018-Jun-15 01:28N 51°57' E 001°19'0 0.0
2018-Jun-15 00:58N 51°57' E 001°19'0 0.0
2018-Jun-15 00:28N 51°57' E 001°19'0 0.0
2018-Jun-14 23:58N 51°57' E 001°19'0 0.0
2018-Jun-14 23:28N 51°57' E 001°19'0 0.0
2018-Jun-14 22:58N 51°57' E 001°19'0 0.0
2018-Jun-14 22:28N 51°57' E 001°19'0 0.0
2018-Jun-14 21:58N 51°57' E 001°19'0 0.0
2018-Jun-14 21:28N 51°57' E 001°19'0 0.0
2018-Jun-14 20:58N 51°57' E 001°19'0 0.0
2018-Jun-14 20:28N 51°57' E 001°19'0 0.0
2018-Jun-14 19:58N 51°57' E 001°19'0 0.0
2018-Jun-14 19:28N 51°57' E 001°19'0 0.0
2018-Jun-14 18:58N 51°57' E 001°19'0 0.0
2018-Jun-14 18:28N 51°57' E 001°19'0 0.0
2018-Jun-14 17:58N 51°57' E 001°19'0 0.0
2018-Jun-14 17:28N 51°57' E 001°19'0 0.0
2018-Jun-14 16:58N 51°57' E 001°19'0 0.0
2018-Jun-14 16:28N 51°57' E 001°19'0 0.0
2018-Jun-14 15:58N 51°57' E 001°19'0 0.0
2018-Jun-14 15:28N 51°57' E 001°19'0 0.0
2018-Jun-14 14:58N 51°57' E 001°19'0 0.0
2018-Jun-14 14:28N 51°57' E 001°19'0 0.0
2018-Jun-14 13:58N 51°57' E 001°19'0 0.0
2018-Jun-14 13:28N 51°57' E 001°19'0 0.0
2018-Jun-14 12:58N 51°57' E 001°19'0 0.0
2018-Jun-14 12:28N 51°57' E 001°19'0 0.0
2018-Jun-14 11:58N 51°57' E 001°19'0 0.0
2018-Jun-14 11:28N 51°57' E 001°19'0 0.0
2018-Jun-14 10:58N 51°57' E 001°19'0 0.0
2018-Jun-14 10:28N 51°57' E 001°19'0 0.0
2018-Jun-14 09:58N 51°57' E 001°19'0 0.0
2018-Jun-14 09:28N 51°57' E 001°19'0 0.0
2018-Jun-14 08:58N 51°57' E 001°19'0 0.0
2018-Jun-14 08:28N 51°57' E 001°19'0 0.0
2018-Jun-14 07:55N 51°57' E 001°19'0 0.0
2018-Jun-14 07:28N 51°57' E 001°19'0 0.0
2018-Jun-14 06:58N 51°57' E 001°19'0 0.0
2018-Jun-14 06:28N 51°57' E 001°19'0 0.0
2018-Jun-14 05:58N 51°57' E 001°19'0 0.0
2018-Jun-14 05:28N 51°57' E 001°19'0 0.0
2018-Jun-14 04:58N 51°57' E 001°19'0 0.0
2018-Jun-14 04:28N 51°57' E 001°19'0 0.0
2018-Jun-14 03:58N 51°57' E 001°19'0 0.0
2018-Jun-14 03:28N 51°57' E 001°19'0 0.0
2018-Jun-14 02:58N 51°57' E 001°19'0 0.0
2018-Jun-14 02:28N 51°57' E 001°19'0 0.0
2018-Jun-14 01:58N 51°57' E 001°19'0 0.0
2018-Jun-14 01:28N 51°57' E 001°19'0 0.0
2018-Jun-14 00:58N 51°57' E 001°19'0 0.0
2018-Jun-14 00:28N 51°57' E 001°19'0 0.0
2018-Jun-13 23:58N 51°57' E 001°19'0 0.0
2018-Jun-13 23:28N 51°57' E 001°19'0 0.0
2018-Jun-13 22:58N 51°57' E 001°19'0 0.0
2018-Jun-13 22:28N 51°57' E 001°19'0 0.0
2018-Jun-13 21:58N 51°57' E 001°19'0 0.0
2018-Jun-13 21:28N 51°57' E 001°19'0 0.0
2018-Jun-13 20:58N 51°57' E 001°19'0 0.0
2018-Jun-13 20:28N 51°57' E 001°19'0 0.0
2018-Jun-13 19:58N 51°57' E 001°19'0 0.0
2018-Jun-13 19:28N 51°57' E 001°19'0 0.0
2018-Jun-13 18:58N 51°57' E 001°19'0 0.0
2018-Jun-13 18:28N 51°57' E 001°19'0 0.0
2018-Jun-13 17:58N 51°57' E 001°19'0 0.0
2018-Jun-13 17:28N 51°57' E 001°19'0 0.0
2018-Jun-13 16:58N 51°57' E 001°19'0 0.0
2018-Jun-13 16:28N 51°57' E 001°19'0 0.0
2018-Jun-13 15:58N 51°57' E 001°19'0 0.0
2018-Jun-13 15:28N 51°57' E 001°19'0 0.0
2018-Jun-13 14:58N 51°57' E 001°19'0 0.0
2018-Jun-13 14:28N 51°57' E 001°19'0 0.0
2018-Jun-13 13:58N 51°57' E 001°19'0 0.0
2018-Jun-13 13:28N 51°57' E 001°19'0 0.0
2018-Jun-13 12:58N 51°57' E 001°19'0 0.0
2018-Jun-13 12:28N 51°57' E 001°19'0 0.0
2018-Jun-13 11:58N 51°57' E 001°19'0 0.0
2018-Jun-13 11:28N 51°57' E 001°19'0 0.0
2018-Jun-13 10:58N 51°57' E 001°19'0 0.0
2018-Jun-13 10:28N 51°57' E 001°19'0 0.0
2018-Jun-13 09:58N 51°57' E 001°19'0 0.0
2018-Jun-13 09:28N 51°57' E 001°19'0 0.0
2018-Jun-13 08:58N 51°57' E 001°19'0 0.0
2018-Jun-13 08:28N 51°57' E 001°19'0 0.0
2018-Jun-13 07:58N 51°57' E 001°19'0 0.0
2018-Jun-13 07:28N 51°57' E 001°19'0 0.0
2018-Jun-13 06:58N 51°57' E 001°19'0 0.0
2018-Jun-13 06:28N 51°57' E 001°19'0 0.0
2018-Jun-13 05:58N 51°57' E 001°19'0 0.0
2018-Jun-13 05:28N 51°57' E 001°19'0 0.0
2018-Jun-13 04:58N 51°57' E 001°19'0 0.0
2018-Jun-13 04:28N 51°57' E 001°19'0 0.0
2018-Jun-13 03:58N 51°57' E 001°19'0 0.0
2018-Jun-13 03:28N 51°57' E 001°19'0 0.0
2018-Jun-13 02:58N 51°57' E 001°19'0 0.0
2018-Jun-13 02:28N 51°57' E 001°19'0 0.0
2018-Jun-13 01:58N 51°57' E 001°19'0 0.0
2018-Jun-13 01:28N 51°57' E 001°19'0 0.0
2018-Jun-13 00:58N 51°57' E 001°19'0 0.0
2018-Jun-13 00:28N 51°57' E 001°19'0 0.0
2018-Jun-12 23:58N 51°57' E 001°19'0 0.0
2018-Jun-12 23:28N 51°57' E 001°19'0 0.0
2018-Jun-12 22:58N 51°57' E 001°19'0 0.0
2018-Jun-12 22:28N 51°57' E 001°19'0 0.0
2018-Jun-12 21:58N 51°57' E 001°19'0 0.0
2018-Jun-12 21:28N 51°57' E 001°19'0 0.0
2018-Jun-12 20:58N 51°57' E 001°19'0 0.0
2018-Jun-12 20:28N 51°57' E 001°19'0 0.0
2018-Jun-12 19:58N 51°57' E 001°19'0 0.0
2018-Jun-12 19:28N 51°57' E 001°19'0 0.0
2018-Jun-12 18:58N 51°57' E 001°19'0 0.0
2018-Jun-12 18:28N 51°57' E 001°19'0 0.0
2018-Jun-12 17:58N 51°57' E 001°19'0 0.0
2018-Jun-12 17:28N 51°57' E 001°19'0 0.0
2018-Jun-12 16:58N 51°57' E 001°19'0 0.0
2018-Jun-12 16:28N 51°57' E 001°19'0 0.0
2018-Jun-12 15:55N 51°57' E 001°19'0 0.0
2018-Jun-12 15:28N 51°57' E 001°19'0 0.0
2018-Jun-12 14:58N 51°57' E 001°19'0 0.0
2018-Jun-12 14:28N 51°57' E 001°19'0 0.0
2018-Jun-12 13:58N 51°57' E 001°19'0 0.0
2018-Jun-12 13:28N 51°57' E 001°19'0 0.0
2018-Jun-12 12:58N 51°57' E 001°19'0 0.0
2018-Jun-12 12:28N 51°57' E 001°19'0 0.0
2018-Jun-12 11:58N 51°57' E 001°19'0 0.0
2018-Jun-12 11:28N 51°57' E 001°19'0 0.0
2018-Jun-12 10:58N 51°57' E 001°19'0 0.0
2018-Jun-12 10:28N 51°57' E 001°19'0 0.0
2018-Jun-12 09:58N 51°57' E 001°19'0 0.0
2018-Jun-12 09:28N 51°57' E 001°19'0 0.0
2018-Jun-12 08:58N 51°57' E 001°19'0 0.0
2018-Jun-12 08:28N 51°57' E 001°19'0 0.0
2018-Jun-12 07:58N 51°57' E 001°19'0 0.0
2018-Jun-12 07:28N 51°57' E 001°19'0 0.0
2018-Jun-12 06:58N 51°57' E 001°19'0 0.0
2018-Jun-12 06:28N 51°57' E 001°19'0 0.0
2018-Jun-12 05:58N 51°57' E 001°19'0 0.0
2018-Jun-12 05:28N 51°57' E 001°19'0 0.0
2018-Jun-12 04:58N 51°57' E 001°19'0 0.0
2018-Jun-12 04:28N 51°57' E 001°19'0 0.0
2018-Jun-12 03:58N 51°57' E 001°19'0 0.0
2018-Jun-12 03:28N 51°57' E 001°19'0 0.0
2018-Jun-12 02:58N 51°57' E 001°19'0 0.0
2018-Jun-12 02:28N 51°57' E 001°19'0 0.0
2018-Jun-12 01:58N 51°57' E 001°19'0 0.0
2018-Jun-12 01:28N 51°57' E 001°19'0 0.0
2018-Jun-12 00:58N 51°57' E 001°19'0 0.3
2018-Jun-12 00:30N 51°57' E 001°19'1 2.5
2018-Jun-12 00:00N 51°56' E 001°19'510.1
2018-Jun-11 23:30N 51°56' E 001°27'510.5
2018-Jun-11 23:01N 51°53' E 001°34'5 9.2
2018-Jun-11 22:30N 51°51' E 001°41'510.7
2018-Jun-11 22:00N 51°50' E 001°49'510.7
2018-Jun-11 21:30N 51°51' E 001°58'611.7
2018-Jun-11 21:00N 51°54' E 002°07'510.6
2018-Jun-11 20:30N 51°57' E 002°13'2 4.0
2018-Jun-11 20:00N 51°58' E 002°16'4 8.7
2018-Jun-11 19:30N 51°54' E 002°14'5 9.6
2018-Jun-11 19:00N 51°49' E 002°11'2 3.5
2018-Jun-11 18:30N 51°48' E 002°11'1 2.9
2018-Jun-11 18:00N 51°49' E 002°13'1 2.9
2018-Jun-11 17:30N 51°50' E 002°14'1 2.6
2018-Jun-11 17:00N 51°51' E 002°16'1 2.3
2018-Jun-11 16:30N 51°52' E 002°17'1 1.9
2018-Jun-11 16:00N 51°52' E 002°18'1 1.3
2018-Jun-11 15:30N 51°53' E 002°18'0 0.7
2018-Jun-11 15:00N 51°53' E 002°18'2 4.3
2018-Jun-11 14:27N 51°53' E 002°14'512.2
2018-Jun-11 14:00N 51°51' E 002°06'510.7
2018-Jun-11 13:30N 51°50' E 001°57'5 9.4
2018-Jun-11 13:00N 51°53' E 002°03'611.8
2018-Jun-11 12:30N 51°56' E 002°12'611.7
2018-Jun-11 12:00N 51°59' E 002°20'612.3
2018-Jun-11 11:31N 52°03' E 002°28'1019.1
2018-Jun-11 11:01N 52°08' E 002°40'1121.3
2018-Jun-11 10:31N 52°15' E 002°54'1121.6
2018-Jun-11 10:01N 52°22' E 003°08'1121.8
2018-Jun-11 09:31N 52°29' E 003°21'1122.4
2018-Jun-11 09:01N 52°38' E 003°31'1122.5
2018-Jun-11 08:30N 52°47' E 003°43'1122.5
2018-Jun-11 08:00N 52°56' E 003°55'1222.5
2018-Jun-11 07:29N 53°04' E 004°09'1122.6
2018-Jun-11 07:00N 53°11' E 004°23'1122.2
2018-Jun-11 06:30N 53°20' E 004°32'1020.2
2018-Jun-11 06:00N 53°29' E 004°42'1020.5
2018-Jun-11 05:30N 53°33' E 004°58'1119.6
2018-Jun-11 04:56N 53°38' E 005°15'920.2
2018-Jun-11 04:30N 53°41' E 005°29'1020.3
2018-Jun-11 04:00N 53°44' E 005°45'1020.5
2018-Jun-11 03:30N 53°47' E 006°01'1020.6
2018-Jun-11 03:00N 53°50' E 006°18'1120.6
2018-Jun-11 02:29N 53°52' E 006°35'3020.5
2018-Jun-11 01:02N 53°58' E 007°25'518.4
2018-Jun-11 00:47N 53°59' E 007°33'414.5
2018-Jun-11 00:29N 53°59' E 007°40'817.3
2018-Jun-11 00:00N 53°52' E 007°47'816.6
2018-Jun-10 23:30N 53°48' E 008°00'815.5
2018-Jun-10 22:59N 53°41' E 008°05'612.1
2018-Jun-10 22:30N 53°36' E 008°10'0 0.7
2018-Jun-10 22:00N 53°35' E 008°09'0 0.0
2018-Jun-10 21:30N 53°35' E 008°09'0 0.0
2018-Jun-10 20:57N 53°35' E 008°09'0 0.0
2018-Jun-10 20:30N 53°35' E 008°09'0 0.0
2018-Jun-10 20:00N 53°35' E 008°09'0 0.0
2018-Jun-10 19:30N 53°35' E 008°09'0 0.0
2018-Jun-10 19:00N 53°35' E 008°09'0 0.0
2018-Jun-10 18:30N 53°35' E 008°09'0 0.0
2018-Jun-10 17:48N 53°35' E 008°09'0 0.0
2018-Jun-10 17:30N 53°35' E 008°09'0 0.0
2018-Jun-10 17:00N 53°35' E 008°09'0 0.1
2018-Jun-10 16:30N 53°35' E 008°09'0 0.0
2018-Jun-10 16:00N 53°35' E 008°09'0 0.0
2018-Jun-10 15:30N 53°35' E 008°09'0 0.0
2018-Jun-10 15:00N 53°35' E 008°09'0 0.0
2018-Jun-10 14:30N 53°35' E 008°09'0 0.0
2018-Jun-10 13:27N 53°35' E 008°09'0 0.0
2018-Jun-10 13:00N 53°35' E 008°09'0 0.0
2018-Jun-10 12:27N 53°35' E 008°09'0 0.0
2018-Jun-10 12:00N 53°35' E 008°09'0 0.0
2018-Jun-10 11:30N 53°35' E 008°09'0 0.0
2018-Jun-10 11:00N 53°35' E 008°09'0 0.0
2018-Jun-10 10:30N 53°35' E 008°09'0 0.3
2018-Jun-10 10:00N 53°35' E 008°09'3 6.3
2018-Jun-10 09:30N 53°39' E 008°08'714.0
2018-Jun-10 09:00N 53°45' E 008°03'612.3
2018-Jun-10 08:30N 53°49' E 007°56'816.7
2018-Jun-10 08:00N 53°53' E 007°43'1019.6
2018-Jun-10 07:30N 54°01' E 007°34'1019.3
2018-Jun-10 07:00N 54°10' E 007°26'611.7
2018-Jun-10 06:30N 54°15' E 007°22'918.2
2018-Jun-10 05:59N 54°24' E 007°16'1122.1
2018-Jun-10 05:30N 54°34' E 007°08'1122.8
2018-Jun-10 05:00N 54°44' E 007°01'1222.6
2018-Jun-10 04:28N 54°55' E 006°52'1122.6
2018-Jun-10 03:58N 55°05' E 006°44'2620.8
2018-Jun-10 02:42N 55°32' E 006°48'522.1
2018-Jun-10 02:30N 55°36' E 006°51'1122.0
2018-Jun-10 01:59N 55°46' E 006°59'1621.8
2018-Jun-10 01:14N 56°01' E 007°10'521.5
2018-Jun-10 01:00N 56°06' E 007°14'3121.6
2018-Jun-09 23:34N 56°34' E 007°35'121.5
2018-Jun-09 23:30N 56°36' E 007°36'2221.5
2018-Jun-09 22:30N 56°55' E 007°52'2121.2
2018-Jun-09 21:31N 57°14' E 008°11'221.8
2018-Jun-09 21:25N 57°15' E 008°14'921.7
2018-Jun-09 21:00N 57°21' E 008°26'1121.6
2018-Jun-09 20:31N 57°28' E 008°41'  
Track history (hours):
 
Tides and Currents Weather Stations Pressure Air Temp Water Temp Dewpoint Dewpoint Depression Visibility Wind Speed Wind Dir Waves Ship Positions

CSCL Arctic Ocean

Last reported at 2018-Jun-19 20:11 UTC. Time now 2018-Jun-20 19:12 UTC.
Position N 36°24' W 008°36'.

Length 400 m; draft 12.9 m.

Type: Ship (hazmat cat A). MMSI: 477967700.

Date/timePositionNaut miles runAvg speedWind from/ knotsBaromVisibWave heightAir tempDewpointWater temp
2018-Jun-19 20:11N 36°24' W 008°36'312.9
2018-Jun-19 19:58N 36°25' W 008°39'613.0
2018-Jun-19 19:29N 36°27' W 008°46'1212.9
2018-Jun-19 18:33N 36°30' W 009°01'112.9
2018-Jun-19 18:30N 36°30' W 009°02'713.1
2018-Jun-19 17:57N 36°32' W 009°10'712.8
2018-Jun-19 17:24N 36°35' W 009°18'513.0
2018-Jun-19 16:58N 36°39' W 009°23'612.9
2018-Jun-19 16:30N 36°44' W 009°28'712.8
2018-Jun-19 15:55N 36°50' W 009°33'713.1
2018-Jun-19 15:25N 36°56' W 009°36'4613.2
2018-Jun-19 11:58N 37°40' W 009°49'613.0
2018-Jun-19 11:30N 37°46' W 009°50'812.8
2018-Jun-19 10:53N 37°54' W 009°52'612.5
2018-Jun-19 10:23N 37°60' W 009°54'512.6
2018-Jun-19 10:01N 38°05' W 009°56'612.4
2018-Jun-19 09:30N 38°11' W 009°57'612.4
2018-Jun-19 09:00N 38°17' W 009°59'612.5
2018-Jun-19 08:30N 38°23' W 010°01'612.6
2018-Jun-19 08:00N 38°29' W 010°03'612.6
2018-Jun-19 07:30N 38°35' W 010°04'713.1
2018-Jun-19 07:00N 38°42' W 010°06'612.9
2018-Jun-19 06:30N 38°48' W 010°06'612.9
2018-Jun-19 06:00N 38°54' W 010°06'612.6
2018-Jun-19 05:30N 39°01' W 010°07'612.4
2018-Jun-19 05:00N 39°07' W 010°07'612.7
2018-Jun-19 04:30N 39°13' W 010°06'613.0
2018-Jun-19 04:00N 39°20' W 010°06'713.2
2018-Jun-19 03:30N 39°26' W 010°06'713.2
2018-Jun-19 03:00N 39°33' W 010°06'713.2
2018-Jun-19 02:30N 39°40' W 010°06'713.0
2018-Jun-19 02:00N 39°46' W 010°06'613.0
2018-Jun-19 01:30N 39°53' W 010°07'713.1
2018-Jun-19 01:00N 39°59' W 010°06'713.3
2018-Jun-19 00:30N 40°06' W 010°06'713.1
2018-Jun-19 00:00N 40°12' W 010°06'713.2
2018-Jun-18 23:30N 40°19' W 010°06'713.6
2018-Jun-18 23:01N 40°26' W 010°06'713.4
2018-Jun-18 22:30N 40°32' W 010°06'713.3
2018-Jun-18 22:00N 40°39' W 010°07'713.2
2018-Jun-18 21:30N 40°46' W 010°06'713.5
2018-Jun-18 21:01N 40°52' W 010°06'713.2
2018-Jun-18 20:31N 40°59' W 010°06'612.9
2018-Jun-18 20:00N 41°05' W 010°07'713.0
2018-Jun-18 19:30N 41°12' W 010°06'813.3
2018-Jun-18 18:55N 41°20' W 010°06'613.6
2018-Jun-18 18:30N 41°25' W 010°06'47713.1
2018-Jun-17 06:05N 48°47' W 005°52'2610.8
2018-Jun-17 03:43N 49°06' W 005°27'411.9
2018-Jun-17 03:24N 49°09' W 005°22'1712.9
2018-Jun-17 02:05N 49°20' W 005°03'114.1
2018-Jun-17 01:59N 49°21' W 005°02'1213.4
2018-Jun-17 01:07N 49°29' W 004°49'213.8
2018-Jun-17 01:00N 49°30' W 004°47'713.6
2018-Jun-17 00:29N 49°34' W 004°39'713.4
2018-Jun-16 23:56N 49°39' W 004°30'613.0
2018-Jun-16 23:30N 49°43' W 004°24'612.4
2018-Jun-16 22:59N 49°47' W 004°16'612.1
2018-Jun-16 22:29N 49°51' W 004°09'611.8
2018-Jun-16 22:00N 49°55' W 004°03'611.2
2018-Jun-16 21:30N 49°59' W 003°56'610.8
2018-Jun-16 20:58N 50°03' W 003°49'510.6
2018-Jun-16 20:30N 50°06' W 003°44'510.3
2018-Jun-16 20:00N 50°09' W 003°38'510.6
2018-Jun-16 19:30N 50°13' W 003°32'611.9
2018-Jun-16 19:00N 50°19' W 003°28'510.5
2018-Jun-16 18:30N 50°24' W 003°25'4 8.2
2018-Jun-16 18:00N 50°25' W 003°19'713.6
2018-Jun-16 17:30N 50°25' W 003°09'714.3
2018-Jun-16 17:00N 50°25' W 002°57'714.9
2018-Jun-16 16:30N 50°26' W 002°46'815.3
2018-Jun-16 16:00N 50°26' W 002°34'816.0
2018-Jun-16 15:31N 50°26' W 002°21'815.8
2018-Jun-16 15:01N 50°26' W 002°09'815.6
2018-Jun-16 14:30N 50°27' W 001°57'714.9
2018-Jun-16 14:00N 50°27' W 001°45'714.2
2018-Jun-16 13:30N 50°27' W 001°34'813.6
2018-Jun-16 12:56N 50°27' W 001°22'613.0
2018-Jun-16 12:30N 50°28' W 001°13'612.0
2018-Jun-16 12:00N 50°28' W 001°03'611.2
2018-Jun-16 11:30N 50°28' W 000°55'510.6
2018-Jun-16 11:00N 50°28' W 000°46'5 9.5
2018-Jun-16 10:29N 50°28' W 000°39'5 9.5
2018-Jun-16 09:59N 50°28' W 000°31'510.0
2018-Jun-16 09:30N 50°29' W 000°24'510.8
2018-Jun-16 09:00N 50°29' W 000°15'611.4
2018-Jun-16 08:30N 50°30' W 000°06'612.1
2018-Jun-16 08:00N 50°30' E 000°03'613.0
2018-Jun-16 07:30N 50°31' E 000°13'713.7
2018-Jun-16 07:00N 50°33' E 000°24'714.2
2018-Jun-16 06:30N 50°35' E 000°34'714.4
2018-Jun-16 06:00N 50°39' E 000°45'714.5
2018-Jun-16 05:30N 50°43' E 000°54'713.9
2018-Jun-16 05:00N 50°47' E 001°02'713.5
2018-Jun-16 04:31N 50°51' E 001°11'713.1
2018-Jun-16 04:01N 50°55' E 001°19'714.8
2018-Jun-16 03:30N 51°01' E 001°27'713.9
2018-Jun-16 03:00N 51°06' E 001°34'713.2
2018-Jun-16 02:30N 51°12' E 001°38'713.1
2018-Jun-16 02:00N 51°18' E 001°41'713.9
2018-Jun-16 01:30N 51°25' E 001°45'612.3
2018-Jun-16 01:01N 51°31' E 001°45'713.2
2018-Jun-16 00:31N 51°38' E 001°45'713.9
2018-Jun-16 00:00N 51°44' E 001°44'713.3
2018-Jun-15 23:31N 51°51' E 001°41'510.0
2018-Jun-15 23:00N 51°53' E 001°34'5 9.5
2018-Jun-15 22:30N 51°56' E 001°29'511.0
2018-Jun-15 22:00N 51°55' E 001°20'2 2.9
2018-Jun-15 21:28N 51°57' E 001°19'0 0.0
2018-Jun-15 20:58N 51°57' E 001°19'0 0.0
2018-Jun-15 20:28N 51°57' E 001°19'0 0.0
2018-Jun-15 19:58N 51°57' E 001°19'0 0.0
2018-Jun-15 19:28N 51°57' E 001°19'0 0.0
2018-Jun-15 18:58N 51°57' E 001°19'0 0.0
2018-Jun-15 18:28N 51°57' E 001°19'0 0.0
2018-Jun-15 17:58N 51°57' E 001°19'0 0.0
2018-Jun-15 17:28N 51°57' E 001°19'0 0.0
2018-Jun-15 16:58N 51°57' E 001°19'0 0.0
2018-Jun-15 16:28N 51°57' E 001°19'0 0.0
2018-Jun-15 15:58N 51°57' E 001°19'0 0.0
2018-Jun-15 15:28N 51°57' E 001°19'0 0.0
2018-Jun-15 14:58N 51°57' E 001°19'0 0.0
2018-Jun-15 14:28N 51°57' E 001°19'0 0.0
2018-Jun-15 13:58N 51°57' E 001°19'0 0.0
2018-Jun-15 13:28N 51°57' E 001°19'0 0.0
2018-Jun-15 12:58N 51°57' E 001°19'0 0.0
2018-Jun-15 12:28N 51°57' E 001°19'0 0.0
2018-Jun-15 11:58N 51°57' E 001°19'0 0.0
2018-Jun-15 11:28N 51°57' E 001°19'0 0.0
2018-Jun-15 10:58N 51°57' E 001°19'0 0.0
2018-Jun-15 10:28N 51°57' E 001°19'0 0.0
2018-Jun-15 09:58N 51°57' E 001°19'0 0.0
2018-Jun-15 09:28N 51°57' E 001°19'0 0.0
2018-Jun-15 08:58N 51°57' E 001°19'0 0.0
2018-Jun-15 08:28N 51°57' E 001°19'0 0.0
2018-Jun-15 07:58N 51°57' E 001°19'0 0.0
2018-Jun-15 07:28N 51°57' E 001°19'0 0.0
2018-Jun-15 06:58N 51°57' E 001°19'0 0.0
2018-Jun-15 06:28N 51°57' E 001°19'0 0.0
2018-Jun-15 05:58N 51°57' E 001°19'0 0.0
2018-Jun-15 05:28N 51°57' E 001°19'0 0.0
2018-Jun-15 04:58N 51°57' E 001°19'0 0.0
2018-Jun-15 04:28N 51°57' E 001°19'0 0.0
2018-Jun-15 03:58N 51°57' E 001°19'0 0.0
2018-Jun-15 03:28N 51°57' E 001°19'0 0.0
2018-Jun-15 02:58N 51°57' E 001°19'0 0.0
2018-Jun-15 02:28N 51°57' E 001°19'0 0.0
2018-Jun-15 01:58N 51°57' E 001°19'0 0.0
2018-Jun-15 01:28N 51°57' E 001°19'0 0.0
2018-Jun-15 00:58N 51°57' E 001°19'0 0.0
2018-Jun-15 00:28N 51°57' E 001°19'0 0.0
2018-Jun-14 23:58N 51°57' E 001°19'0 0.0
2018-Jun-14 23:28N 51°57' E 001°19'0 0.0
2018-Jun-14 22:58N 51°57' E 001°19'0 0.0
2018-Jun-14 22:28N 51°57' E 001°19'0 0.0
2018-Jun-14 21:58N 51°57' E 001°19'0 0.0
2018-Jun-14 21:28N 51°57' E 001°19'0 0.0
2018-Jun-14 20:58N 51°57' E 001°19'0 0.0
2018-Jun-14 20:28N 51°57' E 001°19'0 0.0
2018-Jun-14 19:58N 51°57' E 001°19'0 0.0
2018-Jun-14 19:28N 51°57' E 001°19'0 0.0
2018-Jun-14 18:58N 51°57' E 001°19'0 0.0
2018-Jun-14 18:28N 51°57' E 001°19'0 0.0
2018-Jun-14 17:58N 51°57' E 001°19'0 0.0
2018-Jun-14 17:28N 51°57' E 001°19'0 0.0
2018-Jun-14 16:58N 51°57' E 001°19'0 0.0
2018-Jun-14 16:28N 51°57' E 001°19'0 0.0
2018-Jun-14 15:58N 51°57' E 001°19'0 0.0
2018-Jun-14 15:28N 51°57' E 001°19'0 0.0
2018-Jun-14 14:58N 51°57' E 001°19'0 0.0
2018-Jun-14 14:28N 51°57' E 001°19'0 0.0
2018-Jun-14 13:58N 51°57' E 001°19'0 0.0
2018-Jun-14 13:28N 51°57' E 001°19'0 0.0
2018-Jun-14 12:58N 51°57' E 001°19'0 0.0
2018-Jun-14 12:28N 51°57' E 001°19'0 0.0
2018-Jun-14 11:58N 51°57' E 001°19'0 0.0
2018-Jun-14 11:28N 51°57' E 001°19'0 0.0
2018-Jun-14 10:58N 51°57' E 001°19'0 0.0
2018-Jun-14 10:28N 51°57' E 001°19'0 0.0
2018-Jun-14 09:58N 51°57' E 001°19'0 0.0
2018-Jun-14 09:28N 51°57' E 001°19'0 0.0
2018-Jun-14 08:58N 51°57' E 001°19'0 0.0
2018-Jun-14 08:28N 51°57' E 001°19'0 0.0
2018-Jun-14 07:55N 51°57' E 001°19'0 0.0
2018-Jun-14 07:28N 51°57' E 001°19'0 0.0
2018-Jun-14 06:58N 51°57' E 001°19'0 0.0
2018-Jun-14 06:28N 51°57' E 001°19'0 0.0
2018-Jun-14 05:58N 51°57' E 001°19'0 0.0
2018-Jun-14 05:28N 51°57' E 001°19'0 0.0
2018-Jun-14 04:58N 51°57' E 001°19'0 0.0
2018-Jun-14 04:28N 51°57' E 001°19'0 0.0
2018-Jun-14 03:58N 51°57' E 001°19'0 0.0
2018-Jun-14 03:28N 51°57' E 001°19'0 0.0
2018-Jun-14 02:58N 51°57' E 001°19'0 0.0
2018-Jun-14 02:28N 51°57' E 001°19'0 0.0
2018-Jun-14 01:58N 51°57' E 001°19'0 0.0
2018-Jun-14 01:28N 51°57' E 001°19'0 0.0
2018-Jun-14 00:58N 51°57' E 001°19'0 0.0
2018-Jun-14 00:28N 51°57' E 001°19'0 0.0
2018-Jun-13 23:58N 51°57' E 001°19'0 0.0
2018-Jun-13 23:28N 51°57' E 001°19'0 0.0
2018-Jun-13 22:58N 51°57' E 001°19'0 0.0
2018-Jun-13 22:28N 51°57' E 001°19'0 0.0
2018-Jun-13 21:58N 51°57' E 001°19'0 0.0
2018-Jun-13 21:28N 51°57' E 001°19'0 0.0
2018-Jun-13 20:58N 51°57' E 001°19'0 0.0
2018-Jun-13 20:28N 51°57' E 001°19'0 0.0
2018-Jun-13 19:58N 51°57' E 001°19'0 0.0
2018-Jun-13 19:28N 51°57' E 001°19'0 0.0
2018-Jun-13 18:58N 51°57' E 001°19'0 0.0
2018-Jun-13 18:28N 51°57' E 001°19'0 0.0
2018-Jun-13 17:58N 51°57' E 001°19'0 0.0
2018-Jun-13 17:28N 51°57' E 001°19'0 0.0
2018-Jun-13 16:58N 51°57' E 001°19'0 0.0
2018-Jun-13 16:28N 51°57' E 001°19'0 0.0
2018-Jun-13 15:58N 51°57' E 001°19'0 0.0
2018-Jun-13 15:28N 51°57' E 001°19'0 0.0
2018-Jun-13 14:58N 51°57' E 001°19'0 0.0
2018-Jun-13 14:28N 51°57' E 001°19'0 0.0
2018-Jun-13 13:58N 51°57' E 001°19'0 0.0
2018-Jun-13 13:28N 51°57' E 001°19'0 0.0
2018-Jun-13 12:58N 51°57' E 001°19'0 0.0
2018-Jun-13 12:28N 51°57' E 001°19'0 0.0
2018-Jun-13 11:58N 51°57' E 001°19'0 0.0
2018-Jun-13 11:28N 51°57' E 001°19'0 0.0
2018-Jun-13 10:58N 51°57' E 001°19'0 0.0
2018-Jun-13 10:28N 51°57' E 001°19'0 0.0
2018-Jun-13 09:58N 51°57' E 001°19'0 0.0
2018-Jun-13 09:28N 51°57' E 001°19'0 0.0
2018-Jun-13 08:58N 51°57' E 001°19'0 0.0
2018-Jun-13 08:28N 51°57' E 001°19'0 0.0
2018-Jun-13 07:58N 51°57' E 001°19'0 0.0
2018-Jun-13 07:28N 51°57' E 001°19'0 0.0
2018-Jun-13 06:58N 51°57' E 001°19'0 0.0
2018-Jun-13 06:28N 51°57' E 001°19'0 0.0
2018-Jun-13 05:58N 51°57' E 001°19'0 0.0
2018-Jun-13 05:28N 51°57' E 001°19'0 0.0
2018-Jun-13 04:58N 51°57' E 001°19'0 0.0
2018-Jun-13 04:28N 51°57' E 001°19'0 0.0
2018-Jun-13 03:58N 51°57' E 001°19'0 0.0
2018-Jun-13 03:28N 51°57' E 001°19'0 0.0
2018-Jun-13 02:58N 51°57' E 001°19'0 0.0
2018-Jun-13 02:28N 51°57' E 001°19'0 0.0
2018-Jun-13 01:58N 51°57' E 001°19'0 0.0
2018-Jun-13 01:28N 51°57' E 001°19'0 0.0
2018-Jun-13 00:58N 51°57' E 001°19'0 0.0
2018-Jun-13 00:28N 51°57' E 001°19'0 0.0
2018-Jun-12 23:58N 51°57' E 001°19'0 0.0
2018-Jun-12 23:28N 51°57' E 001°19'0 0.0
2018-Jun-12 22:58N 51°57' E 001°19'0 0.0
2018-Jun-12 22:28N 51°57' E 001°19'0 0.0
2018-Jun-12 21:58N 51°57' E 001°19'0 0.0
2018-Jun-12 21:28N 51°57' E 001°19'0 0.0
2018-Jun-12 20:58N 51°57' E 001°19'0 0.0
2018-Jun-12 20:28N 51°57' E 001°19'0 0.0
2018-Jun-12 19:58N 51°57' E 001°19'0 0.0
2018-Jun-12 19:28N 51°57' E 001°19'0 0.0
2018-Jun-12 18:58N 51°57' E 001°19'0 0.0
2018-Jun-12 18:28N 51°57' E 001°19'0 0.0
2018-Jun-12 17:58N 51°57' E 001°19'0 0.0
2018-Jun-12 17:28N 51°57' E 001°19'0 0.0
2018-Jun-12 16:58N 51°57' E 001°19'0 0.0
2018-Jun-12 16:28N 51°57' E 001°19'0 0.0
2018-Jun-12 15:55N 51°57' E 001°19'0 0.0
2018-Jun-12 15:28N 51°57' E 001°19'0 0.0
2018-Jun-12 14:58N 51°57' E 001°19'0 0.0
2018-Jun-12 14:28N 51°57' E 001°19'0 0.0
2018-Jun-12 13:58N 51°57' E 001°19'0 0.0
2018-Jun-12 13:28N 51°57' E 001°19'0 0.0
2018-Jun-12 12:58N 51°57' E 001°19'0 0.0
2018-Jun-12 12:28N 51°57' E 001°19'0 0.0
2018-Jun-12 11:58N 51°57' E 001°19'0 0.0
2018-Jun-12 11:28N 51°57' E 001°19'0 0.0
2018-Jun-12 10:58N 51°57' E 001°19'0 0.0
2018-Jun-12 10:28N 51°57' E 001°19'0 0.0
2018-Jun-12 09:58N 51°57' E 001°19'0 0.0
2018-Jun-12 09:28N 51°57' E 001°19'0 0.0
2018-Jun-12 08:58N 51°57' E 001°19'0 0.0
2018-Jun-12 08:28N 51°57' E 001°19'0 0.0
2018-Jun-12 07:58N 51°57' E 001°19'0 0.0
2018-Jun-12 07:28N 51°57' E 001°19'0 0.0
2018-Jun-12 06:58N 51°57' E 001°19'0 0.0
2018-Jun-12 06:28N 51°57' E 001°19'0 0.0
2018-Jun-12 05:58N 51°57' E 001°19'0 0.0
2018-Jun-12 05:28N 51°57' E 001°19'0 0.0
2018-Jun-12 04:58N 51°57' E 001°19'0 0.0
2018-Jun-12 04:28N 51°57' E 001°19'0 0.0
2018-Jun-12 03:58N 51°57' E 001°19'0 0.0
2018-Jun-12 03:28N 51°57' E 001°19'0 0.0
2018-Jun-12 02:58N 51°57' E 001°19'0 0.0
2018-Jun-12 02:28N 51°57' E 001°19'0 0.0
2018-Jun-12 01:58N 51°57' E 001°19'0 0.0
2018-Jun-12 01:28N 51°57' E 001°19'0 0.0
2018-Jun-12 00:58N 51°57' E 001°19'0 0.3
2018-Jun-12 00:30N 51°57' E 001°19'1 2.5
2018-Jun-12 00:00N 51°56' E 001°19'510.1
2018-Jun-11 23:30N 51°56' E 001°27'510.5
2018-Jun-11 23:01N 51°53' E 001°34'5 9.2
2018-Jun-11 22:30N 51°51' E 001°41'510.7
2018-Jun-11 22:00N 51°50' E 001°49'510.7
2018-Jun-11 21:30N 51°51' E 001°58'611.7
2018-Jun-11 21:00N 51°54' E 002°07'510.6
2018-Jun-11 20:30N 51°57' E 002°13'2 4.0
2018-Jun-11 20:00N 51°58' E 002°16'4 8.7
2018-Jun-11 19:30N 51°54' E 002°14'5 9.6
2018-Jun-11 19:00N 51°49' E 002°11'2 3.5
2018-Jun-11 18:30N 51°48' E 002°11'1 2.9
2018-Jun-11 18:00N 51°49' E 002°13'1 2.9
2018-Jun-11 17:30N 51°50' E 002°14'1 2.6
2018-Jun-11 17:00N 51°51' E 002°16'1 2.3
2018-Jun-11 16:30N 51°52' E 002°17'1 1.9
2018-Jun-11 16:00N 51°52' E 002°18'1 1.3
2018-Jun-11 15:30N 51°53' E 002°18'0 0.7
2018-Jun-11 15:00N 51°53' E 002°18'2 4.3
2018-Jun-11 14:27N 51°53' E 002°14'512.2
2018-Jun-11 14:00N 51°51' E 002°06'510.7
2018-Jun-11 13:30N 51°50' E 001°57'5 9.4
2018-Jun-11 13:00N 51°53' E 002°03'611.8
2018-Jun-11 12:30N 51°56' E 002°12'611.7
2018-Jun-11 12:00N 51°59' E 002°20'612.3
2018-Jun-11 11:31N 52°03' E 002°28'1019.1
2018-Jun-11 11:01N 52°08' E 002°40'1121.3
2018-Jun-11 10:31N 52°15' E 002°54'1121.6
2018-Jun-11 10:01N 52°22' E 003°08'1121.8
2018-Jun-11 09:31N 52°29' E 003°21'1122.4
2018-Jun-11 09:01N 52°38' E 003°31'1122.5
2018-Jun-11 08:30N 52°47' E 003°43'1122.5
2018-Jun-11 08:00N 52°56' E 003°55'1222.5
2018-Jun-11 07:29N 53°04' E 004°09'1122.6
2018-Jun-11 07:00N 53°11' E 004°23'1122.2
2018-Jun-11 06:30N 53°20' E 004°32'1020.2
2018-Jun-11 06:00N 53°29' E 004°42'1020.5
2018-Jun-11 05:30N 53°33' E 004°58'1119.6
2018-Jun-11 04:56N 53°38' E 005°15'920.2
2018-Jun-11 04:30N 53°41' E 005°29'1020.3
2018-Jun-11 04:00N 53°44' E 005°45'1020.5
2018-Jun-11 03:30N 53°47' E 006°01'1020.6
2018-Jun-11 03:00N 53°50' E 006°18'1120.6
2018-Jun-11 02:29N 53°52' E 006°35'3020.5
2018-Jun-11 01:02N 53°58' E 007°25'518.4
2018-Jun-11 00:47N 53°59' E 007°33'414.5
2018-Jun-11 00:29N 53°59' E 007°40'817.3
2018-Jun-11 00:00N 53°52' E 007°47'816.6
2018-Jun-10 23:30N 53°48' E 008°00'815.5
2018-Jun-10 22:59N 53°41' E 008°05'612.1
2018-Jun-10 22:30N 53°36' E 008°10'0 0.7
2018-Jun-10 22:00N 53°35' E 008°09'0 0.0
2018-Jun-10 21:30N 53°35' E 008°09'0 0.0
2018-Jun-10 20:57N 53°35' E 008°09'0 0.0
2018-Jun-10 20:30N 53°35' E 008°09'0 0.0
2018-Jun-10 20:00N 53°35' E 008°09'0 0.0
2018-Jun-10 19:30N 53°35' E 008°09'0 0.0
2018-Jun-10 19:00N 53°35' E 008°09'0 0.0
2018-Jun-10 18:30N 53°35' E 008°09'0 0.0
2018-Jun-10 17:48N 53°35' E 008°09'0 0.0
2018-Jun-10 17:30N 53°35' E 008°09'0 0.0
2018-Jun-10 17:00N 53°35' E 008°09'0 0.1
2018-Jun-10 16:30N 53°35' E 008°09'0 0.0
2018-Jun-10 16:00N 53°35' E 008°09'0 0.0
2018-Jun-10 15:30N 53°35' E 008°09'0 0.0
2018-Jun-10 15:00N 53°35' E 008°09'0 0.0
2018-Jun-10 14:30N 53°35' E 008°09'0 0.0
2018-Jun-10 13:27N 53°35' E 008°09'0 0.0
2018-Jun-10 13:00N 53°35' E 008°09'0 0.0
2018-Jun-10 12:27N 53°35' E 008°09'0 0.0
2018-Jun-10 12:00N 53°35' E 008°09'0 0.0
2018-Jun-10 11:30N 53°35' E 008°09'0 0.0
2018-Jun-10 11:00N 53°35' E 008°09'0 0.0
2018-Jun-10 10:30N 53°35' E 008°09'0 0.3
2018-Jun-10 10:00N 53°35' E 008°09'3 6.3
2018-Jun-10 09:30N 53°39' E 008°08'714.0
2018-Jun-10 09:00N 53°45' E 008°03'612.3
2018-Jun-10 08:30N 53°49' E 007°56'816.7
2018-Jun-10 08:00N 53°53' E 007°43'1019.6
2018-Jun-10 07:30N 54°01' E 007°34'1019.3
2018-Jun-10 07:00N 54°10' E 007°26'611.7
2018-Jun-10 06:30N 54°15' E 007°22'918.2
2018-Jun-10 05:59N 54°24' E 007°16'1122.1
2018-Jun-10 05:30N 54°34' E 007°08'1122.8
2018-Jun-10 05:00N 54°44' E 007°01'1222.6
2018-Jun-10 04:28N 54°55' E 006°52'1122.6
2018-Jun-10 03:58N 55°05' E 006°44'2620.8
2018-Jun-10 02:42N 55°32' E 006°48'522.1
2018-Jun-10 02:30N 55°36' E 006°51'1122.0
2018-Jun-10 01:59N 55°46' E 006°59'1621.8
2018-Jun-10 01:14N 56°01' E 007°10'521.5
2018-Jun-10 01:00N 56°06' E 007°14'3121.6
2018-Jun-09 23:34N 56°34' E 007°35'121.5
2018-Jun-09 23:30N 56°36' E 007°36'2221.5
2018-Jun-09 22:30N 56°55' E 007°52'2121.2
2018-Jun-09 21:31N 57°14' E 008°11'221.8
2018-Jun-09 21:25N 57°15' E 008°14'921.7
2018-Jun-09 21:00N 57°21' E 008°26'1121.6
2018-Jun-09 20:31N 57°28' E 008°41'  

Dump ship's entire track history